createdAt,value
2018-12-29T00:00:27.920Z,30.03
2018-12-29T00:02:57.406Z,34.00
2018-12-29T00:05:26.827Z,30.60
2018-12-29T00:07:56.217Z,29.73
2018-12-29T00:10:25.643Z,31.20
2018-12-29T00:12:55.293Z,27.60
2018-12-29T00:15:24.780Z,30.40
2018-12-29T00:17:54.238Z,30.23
2018-12-29T00:20:23.492Z,31.10
2018-12-29T00:22:52.785Z,28.67
2018-12-29T00:25:22.457Z,26.57
2018-12-29T00:27:51.741Z,27.23
2018-12-29T00:30:21.111Z,28.50
2018-12-29T00:32:50.346Z,28.17
2018-12-29T00:35:19.745Z,31.30
2018-12-29T00:37:49.043Z,28.87
2018-12-29T00:40:18.795Z,29.80
2018-12-29T00:42:48.124Z,29.87
2018-12-29T00:45:17.426Z,28.40
2018-12-29T00:47:46.700Z,30.03
2018-12-29T00:50:16.023Z,30.43
2018-12-29T00:52:45.560Z,28.17
2018-12-29T00:55:15.321Z,24.47
2018-12-29T00:57:44.769Z,24.57
2018-12-29T01:00:14.572Z,31.13
2018-12-29T01:02:43.871Z,30.00
2018-12-29T01:05:13.222Z,20.17
2018-12-29T01:07:42.956Z,25.40
2018-12-29T01:10:12.454Z,27.17
2018-12-29T01:12:41.776Z,29.43
2018-12-29T01:15:10.978Z,28.20
2018-12-29T01:17:40.317Z,33.33
2018-12-29T01:20:09.641Z,28.33
2018-12-29T01:22:38.895Z,23.60
2018-12-29T01:25:08.203Z,26.57
2018-12-29T01:27:37.511Z,25.40
2018-12-29T01:30:07.975Z,24.07
2018-12-29T01:32:37.206Z,28.97
2018-12-29T01:35:06.776Z,30.50
2018-12-29T01:37:36.034Z,28.57
2018-12-29T01:40:05.927Z,25.30
2018-12-29T01:42:35.220Z,23.03
2018-12-29T01:45:05.136Z,26.53
2018-12-29T01:47:34.557Z,25.37
2018-12-29T01:50:04.069Z,24.20
2018-12-29T01:52:33.346Z,28.50
2018-12-29T01:55:02.618Z,26.50
2018-12-29T01:57:31.859Z,27.50
2018-12-29T02:00:01.523Z,20.87
2018-12-29T02:02:30.934Z,26.57
2018-12-29T02:05:00.269Z,24.90
2018-12-29T02:07:29.600Z,24.27
2018-12-29T02:09:58.935Z,25.40
2018-12-29T02:12:28.263Z,26.93
2018-12-29T02:14:57.564Z,31.43
2018-12-29T02:17:27.135Z,25.60
2018-12-29T02:19:56.781Z,29.13
2018-12-29T02:22:26.021Z,22.17
2018-12-29T02:24:55.292Z,23.57
2018-12-29T02:27:24.444Z,23.23
2018-12-29T02:29:53.926Z,24.77
2018-12-29T02:32:23.430Z,26.87
2018-12-29T02:34:52.780Z,24.47
2018-12-29T02:37:22.051Z,27.43
2018-12-29T02:39:51.292Z,29.43
2018-12-29T02:42:20.616Z,27.87
2018-12-29T02:44:49.836Z,28.93
2018-12-29T02:47:19.128Z,27.63
2018-12-29T02:49:48.451Z,31.60
2018-12-29T02:52:17.805Z,21.87
2018-12-29T02:54:47.554Z,27.40
2018-12-29T02:57:16.880Z,30.20
2018-12-29T02:59:46.177Z,30.47
2018-12-29T03:02:15.578Z,25.80
2018-12-29T03:04:44.861Z,28.20
2018-12-29T03:07:14.081Z,29.33
2018-12-29T03:09:43.661Z,28.83
2018-12-29T03:12:12.880Z,29.43
2018-12-29T03:14:42.117Z,27.53
2018-12-29T03:17:11.363Z,28.43
2018-12-29T03:19:40.690Z,29.40
2018-12-29T03:22:29.195Z,31.57
2018-12-29T03:24:58.433Z,27.20
2018-12-29T03:27:27.680Z,31.00
2018-12-29T03:29:56.906Z,29.87
2018-12-29T03:32:26.181Z,31.23
2018-12-29T03:34:55.393Z,22.80
2018-12-29T03:37:24.685Z,23.70
2018-12-29T03:39:53.856Z,29.90
2018-12-29T03:42:23.117Z,29.53
2018-12-29T03:44:52.304Z,29.23
2018-12-29T03:47:21.533Z,33.63
2018-12-29T03:49:50.734Z,24.30
2018-12-29T03:52:19.922Z,29.40
2018-12-29T03:54:49.199Z,31.07
2018-12-29T03:57:18.409Z,30.77
2018-12-29T03:59:47.583Z,29.70
2018-12-29T04:02:16.846Z,23.87
2018-12-29T04:04:46.051Z,30.17
2018-12-29T04:07:15.408Z,30.37
2018-12-29T04:09:44.753Z,32.83
2018-12-29T04:12:19.924Z,28.07
2018-12-29T04:14:49.163Z,32.77
2018-12-29T04:17:18.423Z,29.30
2018-12-29T04:19:47.600Z,30.37
2018-12-29T04:22:16.817Z,30.93
2018-12-29T04:24:46.130Z,30.40
2018-12-29T04:27:15.306Z,23.73
2018-12-29T04:29:44.592Z,26.70
2018-12-29T04:32:13.753Z,31.93
2018-12-29T04:34:43.038Z,28.23
2018-12-29T04:37:12.267Z,29.60
2018-12-29T04:39:41.808Z,29.37
2018-12-29T04:42:11.198Z,32.80
2018-12-29T04:44:40.397Z,30.00
2018-12-29T04:47:09.695Z,28.13
2018-12-29T04:49:38.978Z,28.57
2018-12-29T04:52:08.266Z,30.17
2018-12-29T04:54:37.500Z,34.17
2018-12-29T04:57:06.797Z,27.87
2018-12-29T04:59:35.947Z,30.53
2018-12-29T05:02:05.145Z,29.90
2018-12-29T05:04:34.321Z,29.10
2018-12-29T05:07:03.581Z,26.70
2018-12-29T05:09:32.820Z,26.37
2018-12-29T05:12:02.052Z,32.70
2018-12-29T05:14:31.291Z,30.63
2018-12-29T05:17:00.475Z,30.03
2018-12-29T05:19:29.647Z,31.27
2018-12-29T05:21:58.927Z,29.50
2018-12-29T05:24:28.189Z,26.67
2018-12-29T05:26:57.421Z,32.37
2018-12-29T05:29:26.622Z,25.80
2018-12-29T05:31:55.844Z,29.80
2018-12-29T05:34:25.091Z,29.27
2018-12-29T05:36:54.275Z,30.90
2018-12-29T05:39:26.293Z,27.23
2018-12-29T05:41:55.573Z,25.10
2018-12-29T05:44:24.777Z,30.83
2018-12-29T05:46:53.980Z,30.13
2018-12-29T05:49:23.163Z,28.00
2018-12-29T05:51:52.364Z,33.33
2018-12-29T05:54:21.652Z,31.27
2018-12-29T05:56:50.849Z,29.10
2018-12-29T05:59:20.116Z,29.90
2018-12-29T06:01:49.372Z,28.50
2018-12-29T06:04:18.662Z,30.13
2018-12-29T06:06:47.812Z,27.70
2018-12-29T06:09:17.076Z,30.33
2018-12-29T06:11:46.254Z,29.97
2018-12-29T06:14:15.564Z,27.33
2018-12-29T06:16:44.751Z,28.57
2018-12-29T06:19:13.925Z,32.77
2018-12-29T06:21:43.111Z,30.33
2018-12-29T06:24:12.417Z,31.67
2018-12-29T06:26:41.602Z,29.43
2018-12-29T06:29:10.919Z,27.20
2018-12-29T06:31:40.171Z,26.37
2018-12-29T06:34:09.391Z,30.53
2018-12-29T06:36:39.373Z,28.73
2018-12-29T06:39:08.997Z,29.47
2018-12-29T06:41:38.181Z,28.17
2018-12-29T06:44:07.327Z,26.20
2018-12-29T06:46:36.495Z,31.87
2018-12-29T06:49:05.739Z,32.37
2018-12-29T06:51:34.914Z,31.10
2018-12-29T06:54:04.091Z,30.47
2018-12-29T06:56:33.375Z,28.23
2018-12-29T06:59:02.603Z,29.40
2018-12-29T07:01:31.808Z,27.20
2018-12-29T07:04:01.037Z,25.13
2018-12-29T07:06:30.346Z,29.17
2018-12-29T07:08:59.522Z,26.67
2018-12-29T07:11:28.688Z,19.43
2018-12-29T07:13:57.893Z,27.23
2018-12-29T07:16:27.115Z,20.23
2018-12-29T07:18:56.307Z,29.27
2018-12-29T07:21:25.591Z,22.63
2018-12-29T07:23:54.753Z,24.47
2018-12-29T07:26:23.973Z,31.83
2018-12-29T07:28:53.127Z,21.50
2018-12-29T07:31:22.386Z,32.08
2018-12-29T07:33:51.665Z,30.20
2018-12-29T07:36:20.935Z,22.87
2018-12-29T07:38:50.126Z,23.77
2018-12-29T07:41:19.413Z,23.27
2018-12-29T07:43:48.698Z,27.63
2018-12-29T07:46:17.855Z,25.00
2018-12-29T07:48:47.147Z,29.10
2018-12-29T07:51:16.326Z,25.07
2018-12-29T07:53:45.559Z,24.93
2018-12-29T07:56:14.762Z,27.17
2018-12-29T07:58:44.042Z,21.93
2018-12-29T08:01:13.321Z,24.73
2018-12-29T08:03:42.547Z,28.70
2018-12-29T08:06:11.784Z,23.60
2018-12-29T08:08:41.045Z,27.57
2018-12-29T08:11:10.264Z,30.03
2018-12-29T08:13:39.543Z,30.37
2018-12-29T08:16:08.900Z,23.43
2018-12-29T08:18:38.390Z,32.07
2018-12-29T08:21:07.576Z,27.00
2018-12-29T08:23:36.788Z,28.27
2018-12-29T08:26:06.149Z,28.93
2018-12-29T08:28:35.468Z,28.97
2018-12-29T08:31:04.784Z,29.40
2018-12-29T08:33:33.976Z,24.40
2018-12-29T08:36:03.203Z,27.23
2018-12-29T08:38:32.455Z,22.83
2018-12-29T08:41:01.720Z,28.43
2018-12-29T08:43:30.913Z,25.57
2018-12-29T08:46:00.323Z,23.23
2018-12-29T08:48:29.496Z,23.73
2018-12-29T08:50:58.716Z,21.77
2018-12-29T08:53:27.905Z,16.37
2018-12-29T08:55:57.194Z,21.87
2018-12-29T08:58:26.355Z,24.87
2018-12-29T09:00:55.647Z,28.17
2018-12-29T09:03:24.858Z,24.07
2018-12-29T09:05:54.184Z,23.53
2018-12-29T09:08:23.388Z,27.23
2018-12-29T09:10:52.608Z,29.17
2018-12-29T09:13:21.916Z,25.40
2018-12-29T09:15:52.036Z,26.00
2018-12-29T09:18:21.277Z,26.67
2018-12-29T09:20:50.558Z,25.10
2018-12-29T09:23:20.107Z,28.33
2018-12-29T09:25:49.506Z,26.03
2018-12-29T09:28:18.778Z,29.03
2018-12-29T09:30:48.154Z,28.67
2018-12-29T09:33:17.456Z,22.70
2018-12-29T09:35:46.621Z,31.70
2018-12-29T09:38:15.838Z,32.80
2018-12-29T09:40:45.042Z,29.67
2018-12-29T09:43:14.318Z,22.27
2018-12-29T09:45:43.520Z,26.87
2018-12-29T09:48:12.780Z,33.47
2018-12-29T09:50:42.198Z,31.70
2018-12-29T09:53:11.878Z,28.07
2018-12-29T09:55:41.172Z,32.83
2018-12-29T09:58:10.436Z,35.47
2018-12-29T10:00:39.655Z,26.13
2018-12-29T10:03:08.937Z,29.67
2018-12-29T10:05:38.172Z,24.00
2018-12-29T10:08:07.471Z,24.00
2018-12-29T10:10:36.812Z,34.23
2018-12-29T10:13:06.028Z,24.77
2018-12-29T10:15:35.269Z,36.03
2018-12-29T10:18:04.453Z,25.53
2018-12-29T10:20:33.747Z,37.27
2018-12-29T10:23:02.993Z,32.57
2018-12-29T10:25:32.211Z,35.80
2018-12-29T10:28:01.781Z,36.23
2018-12-29T10:30:31.128Z,32.37
2018-12-29T10:33:00.320Z,37.60
2018-12-29T10:35:29.971Z,40.27
2018-12-29T10:37:59.217Z,39.77
2018-12-29T10:40:28.467Z,34.00
2018-12-29T10:42:57.715Z,28.07
2018-12-29T10:45:26.998Z,40.57
2018-12-29T10:47:56.210Z,37.53
2018-12-29T10:50:25.711Z,29.00
2018-12-29T10:52:55.047Z,39.10
2018-12-29T10:55:24.287Z,36.53
2018-12-29T10:57:53.479Z,39.30
2018-12-29T11:00:22.745Z,27.70
2018-12-29T11:02:51.963Z,34.90
2018-12-29T11:05:21.270Z,37.57
2018-12-29T11:07:50.588Z,28.60
2018-12-29T11:10:19.811Z,34.53
2018-12-29T11:12:49.120Z,38.37
2018-12-29T11:15:18.300Z,29.00
2018-12-29T11:17:47.643Z,30.00
2018-12-29T11:20:16.862Z,40.10
2018-12-29T11:22:46.164Z,36.77
2018-12-29T11:25:15.447Z,30.83
2018-12-29T11:27:44.688Z,33.63
2018-12-29T11:30:13.929Z,40.47
2018-12-29T11:32:43.392Z,37.87
2018-12-29T11:35:12.679Z,33.20
2018-12-29T11:37:41.968Z,41.60
2018-12-29T11:40:11.173Z,36.63
2018-12-29T11:42:40.483Z,37.47
2018-12-29T11:45:09.792Z,38.93
2018-12-29T11:47:39.320Z,34.57
2018-12-29T11:50:09.065Z,39.87
2018-12-29T11:52:38.484Z,38.57
2018-12-29T11:55:07.872Z,29.50
2018-12-29T11:57:37.082Z,32.10
2018-12-29T12:00:08.422Z,33.40
2018-12-29T12:02:37.738Z,32.43
2018-12-29T12:05:08.572Z,40.00
2018-12-29T12:07:37.828Z,37.07
2018-12-29T12:10:07.057Z,33.57
2018-12-29T12:12:36.909Z,29.90
2018-12-29T12:15:07.310Z,38.00
2018-12-29T12:17:36.672Z,38.20
2018-12-29T12:20:06.581Z,40.40
2018-12-29T12:22:35.867Z,39.87
2018-12-29T12:25:05.192Z,34.93
2018-12-29T12:27:34.388Z,35.13
2018-12-29T12:30:04.426Z,38.10
2018-12-29T12:32:33.680Z,37.63
2018-12-29T12:35:03.435Z,36.80
2018-12-29T12:37:33.065Z,40.93
2018-12-29T12:40:02.326Z,35.33
2018-12-29T12:42:31.698Z,39.87
2018-12-29T12:45:01.699Z,34.70
2018-12-29T12:47:31.047Z,36.33
2018-12-29T12:50:00.496Z,34.80
2018-12-29T12:52:30.282Z,31.37
2018-12-29T12:54:59.635Z,33.03
2018-12-29T12:57:28.971Z,36.87
2018-12-29T12:59:58.539Z,36.13
2018-12-29T13:02:28.356Z,32.17
2018-12-29T13:04:57.575Z,35.87
2018-12-29T13:07:26.805Z,28.77
2018-12-29T13:09:56.098Z,26.10
2018-12-29T13:12:25.372Z,31.00
2018-12-29T13:14:54.570Z,34.60
2018-12-29T13:17:23.815Z,31.63
2018-12-29T13:19:53.041Z,28.33
2018-12-29T13:22:22.355Z,27.07
2018-12-29T13:24:51.615Z,29.80
2018-12-29T13:27:20.908Z,31.70
2018-12-29T13:29:50.197Z,31.53
2018-12-29T13:32:19.682Z,30.13
2018-12-29T13:34:49.026Z,31.30
2018-12-29T13:37:18.355Z,31.07
2018-12-29T13:39:47.584Z,28.27
2018-12-29T13:42:16.886Z,29.13
2018-12-29T13:44:46.077Z,19.60
2018-12-29T13:47:15.275Z,23.30
2018-12-29T13:49:44.998Z,29.93
2018-12-29T13:52:14.620Z,29.43
2018-12-29T13:54:43.836Z,30.47
2018-12-29T13:57:13.130Z,29.37
2018-12-29T13:59:42.552Z,28.10
2018-12-29T14:02:11.838Z,29.63
2018-12-29T14:04:42.824Z,29.87
2018-12-29T14:07:12.048Z,29.63
2018-12-29T14:09:41.254Z,27.30
2018-12-29T14:12:10.940Z,21.97
2018-12-29T14:14:40.671Z,30.77
2018-12-29T14:17:09.990Z,27.33
2018-12-29T14:19:39.421Z,30.87
2018-12-29T14:22:08.738Z,21.67
2018-12-29T14:24:38.044Z,22.87
2018-12-29T14:27:07.772Z,31.90
2018-12-29T14:29:37.060Z,27.67
2018-12-29T14:32:06.499Z,27.53
2018-12-29T14:34:35.943Z,25.10
2018-12-29T14:37:05.440Z,27.23
2018-12-29T14:39:34.865Z,28.37
2018-12-29T14:42:04.102Z,18.70
2018-12-29T14:44:33.469Z,27.63
2018-12-29T14:47:03.298Z,27.70
2018-12-29T14:49:32.619Z,29.07
2018-12-29T14:52:01.845Z,29.40
2018-12-29T14:54:31.185Z,29.43
2018-12-29T14:57:00.538Z,28.20
2018-12-29T14:59:29.883Z,31.50
2018-12-29T15:01:59.177Z,27.57
2018-12-29T15:04:28.465Z,20.47
2018-12-29T15:06:58.072Z,25.43
2018-12-29T15:09:27.480Z,19.10
2018-12-29T15:11:56.919Z,28.13
2018-12-29T15:14:26.328Z,23.90
2018-12-29T15:16:55.853Z,26.43
2018-12-29T15:19:25.255Z,27.67
2018-12-29T15:21:54.650Z,27.73
2018-12-29T15:24:23.834Z,30.33
2018-12-29T15:26:53.208Z,30.53
2018-12-29T15:29:22.992Z,29.53
2018-12-29T15:31:52.372Z,28.20
2018-12-29T15:34:21.692Z,28.70
2018-12-29T15:36:50.999Z,31.23
2018-12-29T15:39:20.865Z,24.37
2018-12-29T15:41:50.196Z,30.57
2018-12-29T15:44:19.480Z,21.90
2018-12-29T15:46:48.670Z,19.20
2018-12-29T15:49:17.966Z,27.80
2018-12-29T15:51:47.316Z,19.90
2018-12-29T15:54:16.529Z,23.73
2018-12-29T15:56:45.772Z,28.20
2018-12-29T15:59:14.973Z,29.20
2018-12-29T16:01:44.150Z,31.57
2018-12-29T16:04:13.404Z,22.10
2018-12-29T16:06:42.819Z,30.43
2018-12-29T16:09:12.044Z,34.13
2018-12-29T16:11:41.618Z,34.60
2018-12-29T16:14:10.872Z,32.23
2018-12-29T16:16:40.619Z,31.53
2018-12-29T16:19:10.036Z,32.97
2018-12-29T16:21:39.616Z,32.77
2018-12-29T16:24:09.211Z,33.00
2018-12-29T16:26:38.500Z,34.57
2018-12-29T16:29:07.883Z,33.47
2018-12-29T16:31:37.867Z,37.57
2018-12-29T16:34:08.718Z,31.93
2018-12-29T16:36:38.028Z,36.03
2018-12-29T16:39:08.131Z,39.33
2018-12-29T16:41:37.398Z,43.20
2018-12-29T16:44:06.622Z,48.47
2018-12-29T16:46:36.767Z,49.27
2018-12-29T16:49:06.942Z,45.80
2018-12-29T16:51:36.436Z,46.57
2018-12-29T16:54:05.668Z,39.47
2018-12-29T16:56:35.430Z,39.57
2018-12-29T16:59:04.838Z,42.37
2018-12-29T17:01:34.139Z,41.37
2018-12-29T17:04:03.385Z,38.17
2018-12-29T17:06:32.907Z,36.43
2018-12-29T17:09:02.166Z,35.37
2018-12-29T17:11:31.484Z,33.93
2018-12-29T17:14:01.062Z,35.97
2018-12-29T17:16:30.271Z,40.70
2018-12-29T17:18:59.485Z,39.13
2018-12-29T17:21:28.817Z,37.40
2018-12-29T17:23:58.075Z,30.30
2018-12-29T17:26:27.435Z,27.77
2018-12-29T17:28:56.796Z,40.60
2018-12-29T17:31:26.048Z,39.60
2018-12-29T17:33:55.422Z,38.93
2018-12-29T17:36:25.032Z,34.30
2018-12-29T17:38:54.258Z,27.00
2018-12-29T17:41:23.564Z,32.97
2018-12-29T17:43:53.147Z,26.63
2018-12-29T17:46:22.414Z,34.10
2018-12-29T17:48:52.041Z,29.80
2018-12-29T17:51:21.313Z,39.87
2018-12-29T17:53:50.679Z,37.67
2018-12-29T17:56:20.383Z,30.63
2018-12-29T17:58:49.919Z,31.23
2018-12-29T18:01:19.214Z,32.60
2018-12-29T18:03:48.399Z,28.50
2018-12-29T18:06:17.614Z,27.80
2018-12-29T18:08:47.274Z,35.83
2018-12-29T18:11:16.661Z,31.53
2018-12-29T18:13:46.284Z,30.23
2018-12-29T18:16:35.023Z,27.70
2018-12-29T18:19:04.319Z,28.27
2018-12-29T18:21:33.547Z,33.47
2018-12-29T18:24:02.985Z,30.47
2018-12-29T18:26:32.184Z,29.13
2018-12-29T18:29:01.436Z,27.43
2018-12-29T18:31:30.823Z,24.53
2018-12-29T18:34:00.198Z,28.07
2018-12-29T18:36:29.683Z,25.17
2018-12-29T18:38:59.013Z,27.10
2018-12-29T18:41:28.501Z,27.93
2018-12-29T18:43:57.769Z,23.47
2018-12-29T18:46:26.972Z,25.87
2018-12-29T18:48:56.363Z,27.27
2018-12-29T18:51:25.671Z,19.43
2018-12-29T18:53:55.485Z,25.57
2018-12-29T18:56:25.593Z,27.90
2018-12-29T18:58:54.942Z,23.83
2018-12-29T19:01:24.363Z,22.33
2018-12-29T19:03:54.065Z,20.27
2018-12-29T19:06:23.473Z,20.67
2018-12-29T19:08:52.857Z,18.43
2018-12-29T19:11:22.128Z,19.13
2018-12-29T19:13:51.436Z,17.00
2018-12-29T19:16:20.840Z,16.47
2018-12-29T19:18:50.393Z,12.87
2018-12-29T19:21:21.342Z,9.70
2018-12-29T19:23:50.949Z,9.53
2018-12-29T19:26:20.517Z,9.73
2018-12-29T19:28:50.206Z,7.80
2018-12-29T19:31:19.881Z,6.57
2018-12-29T19:33:49.131Z,7.80
2018-12-29T19:36:18.353Z,6.97
2018-12-29T19:38:48.142Z,7.20
2018-12-29T19:41:17.716Z,7.93
2018-12-29T19:43:47.517Z,7.03
2018-12-29T19:46:17.185Z,7.50
2018-12-29T19:48:46.474Z,7.83
2018-12-29T19:51:16.097Z,7.93
2018-12-29T19:53:45.902Z,7.43
2018-12-29T19:56:15.109Z,6.27
2018-12-29T19:58:44.390Z,6.27
2018-12-29T20:01:13.992Z,8.27
2018-12-29T20:03:43.224Z,8.30
2018-12-29T20:06:12.529Z,8.40
2018-12-29T20:08:41.841Z,7.47
2018-12-29T20:11:11.162Z,7.47
2018-12-29T20:13:40.421Z,7.67
2018-12-29T20:16:09.726Z,7.00
2018-12-29T20:18:38.956Z,8.50
2018-12-29T20:21:08.256Z,7.97
2018-12-29T20:23:37.540Z,7.53
2018-12-29T20:26:07.240Z,7.40
2018-12-29T20:28:36.518Z,7.57
2018-12-29T20:31:05.836Z,7.47
2018-12-29T20:33:35.089Z,8.30
2018-12-29T20:36:04.379Z,11.03
2018-12-29T20:38:33.606Z,16.97
2018-12-29T20:41:02.936Z,10.93
2018-12-29T20:43:32.338Z,11.53
2018-12-29T20:46:01.830Z,10.53
2018-12-29T20:48:31.197Z,9.20
2018-12-29T20:51:00.565Z,8.80
2018-12-29T20:53:29.929Z,10.77
2018-12-29T20:55:59.314Z,9.80
2018-12-29T20:58:29.273Z,13.33
2018-12-29T21:00:58.698Z,10.03
2018-12-29T21:03:28.011Z,16.67
2018-12-29T21:05:57.356Z,13.97
2018-12-29T21:08:27.022Z,13.53
2018-12-29T21:10:56.392Z,12.00
2018-12-29T21:13:25.729Z,12.17
2018-12-29T21:15:54.985Z,15.33
2018-12-29T21:18:24.176Z,13.10
2018-12-29T21:20:53.556Z,17.27
2018-12-29T21:23:23.195Z,13.83
2018-12-29T21:25:52.528Z,18.73
2018-12-29T21:28:21.864Z,12.07
2018-12-29T21:30:51.261Z,12.90
2018-12-29T21:33:20.625Z,15.17
2018-12-29T21:35:50.141Z,16.17
2018-12-29T21:38:19.449Z,13.20
2018-12-29T21:40:48.683Z,13.33
2018-12-29T21:43:18.085Z,17.23
2018-12-29T21:45:47.378Z,9.73
2018-12-29T21:48:16.692Z,13.20
2018-12-29T21:50:46.055Z,10.30
2018-12-29T21:53:15.374Z,10.53
2018-12-29T21:55:44.567Z,8.40
2018-12-29T21:58:13.829Z,10.10
2018-12-29T22:00:43.209Z,10.07
2018-12-29T22:03:12.737Z,10.03
2018-12-29T22:05:42.041Z,12.43
2018-12-29T22:08:11.360Z,11.10
2018-12-29T22:10:40.740Z,8.50
2018-12-29T22:13:10.061Z,10.67
2018-12-29T22:15:39.731Z,10.57
2018-12-29T22:18:09.004Z,13.17
2018-12-29T22:20:38.364Z,9.33
2018-12-29T22:23:07.687Z,7.60
2018-12-29T22:25:36.924Z,8.17
2018-12-29T22:28:06.859Z,6.20
2018-12-29T22:30:36.148Z,7.50
2018-12-29T22:33:05.401Z,6.40
2018-12-29T22:35:34.818Z,3.50
2018-12-29T22:38:04.118Z,3.60
2018-12-29T22:40:34.048Z,2.07
2018-12-29T22:43:03.261Z,2.33
2018-12-29T22:45:32.461Z,3.53
2018-12-29T22:48:01.688Z,1.77
2018-12-29T22:50:30.913Z,2.47
2018-12-29T22:53:00.258Z,2.83
2018-12-29T22:55:29.461Z,2.23
2018-12-29T22:57:58.672Z,3.17
2018-12-29T23:00:44.705Z,1.83
2018-12-29T23:03:14.062Z,3.13
2018-12-29T23:05:43.740Z,2.00
2018-12-29T23:08:13.004Z,2.13
2018-12-29T23:10:42.321Z,2.60
2018-12-29T23:13:11.616Z,2.10
2018-12-29T23:15:40.909Z,3.90
2018-12-29T23:18:10.298Z,1.93
2018-12-29T23:20:40.022Z,3.43
2018-12-29T23:23:09.371Z,2.57
2018-12-29T23:25:38.741Z,2.97
2018-12-29T23:28:08.060Z,2.60
2018-12-29T23:30:37.362Z,3.23
2018-12-29T23:33:06.596Z,4.23
2018-12-29T23:35:35.816Z,3.37
2018-12-29T23:38:05.732Z,3.30
2018-12-29T23:40:34.985Z,3.07
2018-12-29T23:43:04.380Z,3.87
2018-12-29T23:45:34.133Z,4.37
2018-12-29T23:48:03.406Z,3.83
2018-12-29T23:50:32.715Z,3.87
2018-12-29T23:53:02.501Z,5.83
2018-12-29T23:55:32.051Z,5.30
2018-12-29T23:58:01.337Z,6.53
